<?xml version='1.0' encoding='UTF-8'?><gpx version="1.1" creator="JPX - https://github.com/jenetics/jpx" xmlns="http://www.topografix.com/GPX/1/1"><trk><trkseg><trkpt lat="43.2256062" lon="12.8268126"><ele>990.7142857142858</ele><time>2026-05-02T15:50:48.204Z</time></trkpt><trkpt lat="43.2256761" lon="12.8268057"><ele>986.4285714285713</ele><time>2026-05-02T15:50:56.203Z</time></trkpt><trkpt lat="43.2257007" lon="12.8267193"><ele>982.1428571428571</ele><time>2026-05-02T15:51:29.202Z</time></trkpt><trkpt lat="43.2257332" lon="12.826634"><ele>977.8571428571429</ele><time>2026-05-02T15:51:40.177Z</time></trkpt><trkpt lat="43.2257637" lon="12.8265512"><ele>973.5714285714287</ele><time>2026-05-02T15:51:51.203Z</time></trkpt><trkpt lat="43.2257702" lon="12.8264618"><ele>969.2857142857142</ele><time>2026-05-02T15:52:09.141Z</time></trkpt><trkpt lat="43.2257877" lon="12.826364"><ele>965.0</ele><time>2026-05-02T15:52:19.071Z</time></trkpt><trkpt lat="43.2258087" lon="12.8262729"><ele>965.0</ele><time>2026-05-02T15:52:28.276Z</time></trkpt><trkpt lat="43.2258132" lon="12.8261786"><ele>965.0</ele><time>2026-05-02T15:52:39.218Z</time></trkpt><trkpt lat="43.2258193" lon="12.8260844"><ele>965.0</ele><time>2026-05-02T15:53:00.178Z</time></trkpt><trkpt lat="43.2257765" lon="12.8260174"><ele>965.0</ele><time>2026-05-02T15:53:09.203Z</time></trkpt><trkpt lat="43.2257768" lon="12.8259157"><ele>965.0</ele><time>2026-05-02T15:53:17.24Z</time></trkpt><trkpt lat="43.2258291" lon="12.8258552"><ele>965.0</ele><time>2026-05-02T15:53:24.205Z</time></trkpt><trkpt lat="43.2258409" lon="12.825766"><ele>965.0</ele><time>2026-05-02T15:53:36.259Z</time></trkpt><trkpt lat="43.2258227" lon="12.8256817"><ele>962.5714285714286</ele><time>2026-05-02T15:53:45.203Z</time></trkpt><trkpt lat="43.2258537" lon="12.8256004"><ele>960.1428571428571</ele><time>2026-05-02T15:53:54.203Z</time></trkpt><trkpt lat="43.2258608" lon="12.8255099"><ele>957.7142857142857</ele><time>2026-05-02T15:54:06.204Z</time></trkpt><trkpt lat="43.2258684" lon="12.8254149"><ele>955.2857142857142</ele><time>2026-05-02T15:54:16.421Z</time></trkpt><trkpt lat="43.2258967" lon="12.8253294"><ele>952.8571428571429</ele><time>2026-05-02T15:54:27.246Z</time></trkpt><trkpt lat="43.2259439" lon="12.8252652"><ele>950.4285714285713</ele><time>2026-05-02T15:54:35.203Z</time></trkpt><trkpt lat="43.2259585" lon="12.8251741"><ele>947.9999999999999</ele><time>2026-05-02T15:54:43.202Z</time></trkpt><trkpt lat="43.226006" lon="12.8251136"><ele>946.7142857142856</ele><time>2026-05-02T15:54:55.37Z</time></trkpt><trkpt lat="43.2260023" lon="12.825023"><ele>945.4285714285713</ele><time>2026-05-02T15:55:09.203Z</time></trkpt><trkpt lat="43.2259922" lon="12.8249357"><ele>944.1428571428571</ele><time>2026-05-02T15:55:26.141Z</time></trkpt><trkpt lat="43.2260019" lon="12.8248387"><ele>942.8571428571428</ele><time>2026-05-02T15:55:37.38Z</time></trkpt><trkpt lat="43.2260306" lon="12.8247612"><ele>941.5714285714284</ele><time>2026-05-02T15:55:43.221Z</time></trkpt><trkpt lat="43.2260645" lon="12.8246776"><ele>940.2857142857143</ele><time>2026-05-02T15:55:50.203Z</time></trkpt><trkpt lat="43.226068" lon="12.8245766"><ele>939.0</ele><time>2026-05-02T15:55:56.203Z</time></trkpt><trkpt lat="43.2260759" lon="12.8244881"><ele>939.0</ele><time>2026-05-02T15:56:02.203Z</time></trkpt><trkpt lat="43.2260072" lon="12.8245171"><ele>939.0</ele><time>2026-05-02T15:56:12.204Z</time></trkpt><trkpt lat="43.2259596" lon="12.8244562"><ele>939.0</ele><time>2026-05-02T15:56:39.203Z</time></trkpt><trkpt lat="43.2260463" lon="12.8244056"><ele>939.0</ele><time>2026-05-02T15:56:42.203Z</time></trkpt><trkpt lat="43.2261049" lon="12.8243722"><ele>939.0</ele><time>2026-05-02T15:56:46.246Z</time></trkpt><trkpt lat="43.2261266" lon="12.8242854"><ele>939.0</ele><time>2026-05-02T15:56:54.203Z</time></trkpt><trkpt lat="43.2261181" lon="12.8241936"><ele>939.0</ele><time>2026-05-02T15:57:02.23Z</time></trkpt><trkpt lat="43.2261108" lon="12.8241003"><ele>938.5714285714287</ele><time>2026-05-02T15:57:32.202Z</time></trkpt><trkpt lat="43.2261217" lon="12.8240151"><ele>938.1428571428571</ele><time>2026-05-02T15:57:37.234Z</time></trkpt><trkpt lat="43.2261166" lon="12.8239176"><ele>937.7142857142858</ele><time>2026-05-02T15:57:43.202Z</time></trkpt><trkpt lat="43.2261015" lon="12.8238208"><ele>937.2857142857143</ele><time>2026-05-02T15:57:49.126Z</time></trkpt><trkpt lat="43.2261143" lon="12.8237163"><ele>936.8571428571429</ele><time>2026-05-02T15:57:57.263Z</time></trkpt><trkpt lat="43.2261191" lon="12.8236149"><ele>936.4285714285714</ele><time>2026-05-02T15:58:02.321Z</time></trkpt><trkpt lat="43.2261479" lon="12.8235301"><ele>936.0</ele><time>2026-05-02T15:58:10.176Z</time></trkpt><trkpt lat="43.2261366" lon="12.8234416"><ele>934.7142857142858</ele><time>2026-05-02T15:58:21.143Z</time></trkpt><trkpt lat="43.2260936" lon="12.8233662"><ele>933.4285714285716</ele><time>2026-05-02T15:58:30.19Z</time></trkpt><trkpt lat="43.2261335" lon="12.823288"><ele>932.1428571428571</ele><time>2026-05-02T15:58:39.203Z</time></trkpt><trkpt lat="43.2261348" lon="12.823201"><ele>930.8571428571429</ele><time>2026-05-02T15:58:45.214Z</time></trkpt><trkpt lat="43.226155" lon="12.8231149"><ele>929.5714285714286</ele><time>2026-05-02T15:59:03.186Z</time></trkpt><trkpt lat="43.2262319" lon="12.8231207"><ele>928.2857142857142</ele><time>2026-05-02T15:59:36.203Z</time></trkpt><trkpt lat="43.2262444" lon="12.8230266"><ele>926.9999999999999</ele><time>2026-05-02T15:59:43.203Z</time></trkpt><trkpt lat="43.2262422" lon="12.8229369"><ele>926.9999999999999</ele><time>2026-05-02T15:59:53.2Z</time></trkpt><trkpt lat="43.2262335" lon="12.8228431"><ele>927.0</ele><time>2026-05-02T16:00:01.203Z</time></trkpt><trkpt lat="43.2262557" lon="12.8227544"><ele>926.9999999999999</ele><time>2026-05-02T16:00:09.203Z</time></trkpt><trkpt lat="43.2262794" lon="12.8226655"><ele>926.9999999999999</ele><time>2026-05-02T16:00:17.926Z</time></trkpt><trkpt lat="43.2262756" lon="12.8225791"><ele>927.0</ele><time>2026-05-02T16:00:24.202Z</time></trkpt><trkpt lat="43.2262635" lon="12.8224849"><ele>926.9999999999999</ele><time>2026-05-02T16:00:30.203Z</time></trkpt><trkpt lat="43.2262799" lon="12.8223947"><ele>926.9999999999999</ele><time>2026-05-02T16:00:36.203Z</time></trkpt><trkpt lat="43.2262631" lon="12.8223065"><ele>925.7142857142856</ele><time>2026-05-02T16:00:41.208Z</time></trkpt><trkpt lat="43.2262799" lon="12.8222192"><ele>924.4285714285713</ele><time>2026-05-02T16:00:46.058Z</time></trkpt><trkpt lat="43.2263041" lon="12.8221362"><ele>923.1428571428571</ele><time>2026-05-02T16:00:53.202Z</time></trkpt><trkpt lat="43.226314" lon="12.8220444"><ele>921.8571428571428</ele><time>2026-05-02T16:01:02.203Z</time></trkpt><trkpt lat="43.2263066" lon="12.8219482"><ele>920.5714285714284</ele><time>2026-05-02T16:01:10.199Z</time></trkpt><trkpt lat="43.2263189" lon="12.8218579"><ele>919.2857142857143</ele><time>2026-05-02T16:01:25.202Z</time></trkpt><trkpt lat="43.2262759" lon="12.8217786"><ele>918.0</ele><time>2026-05-02T16:01:47.203Z</time></trkpt><trkpt lat="43.2262464" lon="12.8216882"><ele>916.8571428571429</ele><time>2026-05-02T16:01:53.202Z</time></trkpt><trkpt lat="43.2262365" lon="12.8215978"><ele>915.7142857142857</ele><time>2026-05-02T16:02:00.194Z</time></trkpt><trkpt lat="43.2262485" lon="12.8215092"><ele>914.5714285714286</ele><time>2026-05-02T16:02:11.2Z</time></trkpt><trkpt lat="43.2262685" lon="12.8214252"><ele>913.4285714285714</ele><time>2026-05-02T16:02:16.202Z</time></trkpt><trkpt lat="43.2262586" lon="12.8213395"><ele>912.2857142857142</ele><time>2026-05-02T16:02:22.203Z</time></trkpt><trkpt lat="43.2262587" lon="12.8212491"><ele>911.1428571428571</ele><time>2026-05-02T16:02:30.203Z</time></trkpt><trkpt lat="43.2262647" lon="12.8211583"><ele>910.0</ele><time>2026-05-02T16:02:37.677Z</time></trkpt><trkpt lat="43.2262612" lon="12.8210708"><ele>909.1428571428571</ele><time>2026-05-02T16:02:46.172Z</time></trkpt><trkpt lat="43.2262676" lon="12.8209815"><ele>908.2857142857142</ele><time>2026-05-02T16:02:53.132Z</time></trkpt><trkpt lat="43.2262505" lon="12.8208966"><ele>907.4285714285714</ele><time>2026-05-02T16:02:59.203Z</time></trkpt><trkpt lat="43.2262585" lon="12.8208089"><ele>906.5714285714286</ele><time>2026-05-02T16:03:05.203Z</time></trkpt><trkpt lat="43.2262601" lon="12.8207178"><ele>905.7142857142857</ele><time>2026-05-02T16:03:12.206Z</time></trkpt><trkpt lat="43.226271" lon="12.820625"><ele>904.8571428571429</ele><time>2026-05-02T16:03:19.203Z</time></trkpt><trkpt lat="43.2263001" lon="12.8205351"><ele>904.0</ele><time>2026-05-02T16:03:26.203Z</time></trkpt><trkpt lat="43.2263191" lon="12.820451"><ele>904.0</ele><time>2026-05-02T16:03:33.203Z</time></trkpt><trkpt lat="43.2263076" lon="12.8203614"><ele>904.0</ele><time>2026-05-02T16:03:42.202Z</time></trkpt><trkpt lat="43.2262564" lon="12.8203008"><ele>904.0</ele><time>2026-05-02T16:03:48.202Z</time></trkpt><trkpt lat="43.2262293" lon="12.820219"><ele>904.0</ele><time>2026-05-02T16:04:47.195Z</time></trkpt><trkpt lat="43.2262789" lon="12.8201646"><ele>904.0</ele><time>2026-05-02T16:04:55.203Z</time></trkpt><trkpt lat="43.226342" lon="12.8201214"><ele>904.0</ele><time>2026-05-02T16:05:03.203Z</time></trkpt><trkpt lat="43.2263987" lon="12.8200718"><ele>904.0</ele><time>2026-05-02T16:05:09.203Z</time></trkpt><trkpt lat="43.2264545" lon="12.8200105"><ele>903.2857142857143</ele><time>2026-05-02T16:05:20.112Z</time></trkpt><trkpt lat="43.2265186" lon="12.8199709"><ele>902.5714285714284</ele><time>2026-05-02T16:05:29.203Z</time></trkpt><trkpt lat="43.2265319" lon="12.8198833"><ele>901.8571428571428</ele><time>2026-05-02T16:05:37.203Z</time></trkpt><trkpt lat="43.2265179" lon="12.8197892"><ele>901.1428571428571</ele><time>2026-05-02T16:05:43.203Z</time></trkpt><trkpt lat="43.226486" lon="12.8196967"><ele>900.4285714285713</ele><time>2026-05-02T16:05:50.203Z</time></trkpt><trkpt lat="43.2264524" lon="12.8196198"><ele>899.7142857142856</ele><time>2026-05-02T16:05:59.194Z</time></trkpt><trkpt lat="43.2264252" lon="12.8195337"><ele>898.9999999999999</ele><time>2026-05-02T16:06:12.13Z</time></trkpt><trkpt lat="43.2263999" lon="12.8194388"><ele>898.9999999999999</ele><time>2026-05-02T16:06:22.075Z</time></trkpt><trkpt lat="43.2263794" lon="12.8193554"><ele>899.0</ele><time>2026-05-02T16:06:27.203Z</time></trkpt><trkpt lat="43.226363" lon="12.8192607"><ele>898.9999999999999</ele><time>2026-05-02T16:06:34.203Z</time></trkpt><trkpt lat="43.2263997" lon="12.8191796"><ele>898.9999999999999</ele><time>2026-05-02T16:06:43.203Z</time></trkpt><trkpt lat="43.226458" lon="12.8192154"><ele>899.0</ele><time>2026-05-02T16:06:55.203Z</time></trkpt><trkpt lat="43.2265488" lon="12.8191615"><ele>898.9999999999999</ele><time>2026-05-02T16:07:10.203Z</time></trkpt><trkpt lat="43.2265883" lon="12.8190836"><ele>898.9999999999999</ele><time>2026-05-02T16:07:17.203Z</time></trkpt><trkpt lat="43.2266438" lon="12.8190244"><ele>893.8571428571428</ele><time>2026-05-02T16:07:24.221Z</time></trkpt><trkpt lat="43.2266722" lon="12.8189458"><ele>888.7142857142857</ele><time>2026-05-02T16:07:34.202Z</time></trkpt><trkpt lat="43.2266786" lon="12.8188522"><ele>883.5714285714286</ele><time>2026-05-02T16:08:07.209Z</time></trkpt><trkpt lat="43.2266463" lon="12.8187746"><ele>878.4285714285713</ele><time>2026-05-02T16:08:18.203Z</time></trkpt><trkpt lat="43.226599" lon="12.8187157"><ele>873.2857142857142</ele><time>2026-05-02T16:08:27.203Z</time></trkpt><trkpt lat="43.2265439" lon="12.8186731"><ele>868.1428571428572</ele><time>2026-05-02T16:08:36.202Z</time></trkpt><trkpt lat="43.226498" lon="12.8185978"><ele>863.0</ele><time>2026-05-02T16:08:44.203Z</time></trkpt><trkpt lat="43.2264825" lon="12.8185138"><ele>861.1428571428572</ele><time>2026-05-02T16:08:50.203Z</time></trkpt><trkpt lat="43.2264814" lon="12.8184185"><ele>859.2857142857143</ele><time>2026-05-02T16:08:57.203Z</time></trkpt><trkpt lat="43.2264698" lon="12.8183249"><ele>857.4285714285714</ele><time>2026-05-02T16:09:04.203Z</time></trkpt><trkpt lat="43.2264601" lon="12.8182379"><ele>855.5714285714287</ele><time>2026-05-02T16:09:11.203Z</time></trkpt><trkpt lat="43.226491" lon="12.8181522"><ele>853.7142857142857</ele><time>2026-05-02T16:09:19.202Z</time></trkpt><trkpt lat="43.2265553" lon="12.8181107"><ele>851.8571428571429</ele><time>2026-05-02T16:09:26.216Z</time></trkpt><trkpt lat="43.2265716" lon="12.8180177"><ele>850.0</ele><time>2026-05-02T16:09:37.713Z</time></trkpt><trkpt lat="43.2266281" lon="12.8179687"><ele>850.0</ele><time>2026-05-02T16:10:14.039Z</time></trkpt><trkpt lat="43.2266694" lon="12.8178915"><ele>850.0</ele><time>2026-05-02T16:10:23.202Z</time></trkpt><trkpt lat="43.2267111" lon="12.8178168"><ele>850.0</ele><time>2026-05-02T16:10:37.202Z</time></trkpt><trkpt lat="43.226756" lon="12.817745"><ele>850.0</ele><time>2026-05-02T16:10:47.12Z</time></trkpt><trkpt lat="43.2267436" lon="12.8176568"><ele>850.0</ele><time>2026-05-02T16:10:55.161Z</time></trkpt><trkpt lat="43.2268034" lon="12.8175997"><ele>850.0</ele><time>2026-05-02T16:11:01.207Z</time></trkpt><trkpt lat="43.2268281" lon="12.8175192"><ele>850.0</ele><time>2026-05-02T16:11:07.162Z</time></trkpt><trkpt lat="43.2268358" lon="12.8174296"><ele>847.4285714285714</ele><time>2026-05-02T16:11:29.202Z</time></trkpt><trkpt lat="43.2268637" lon="12.8173456"><ele>844.8571428571429</ele><time>2026-05-02T16:11:34.202Z</time></trkpt><trkpt lat="43.2268877" lon="12.8172522"><ele>842.2857142857142</ele><time>2026-05-02T16:11:39.201Z</time></trkpt><trkpt lat="43.2268907" lon="12.8171626"><ele>839.7142857142858</ele><time>2026-05-02T16:12:05.226Z</time></trkpt><trkpt lat="43.2268783" lon="12.8170691"><ele>837.1428571428572</ele><time>2026-05-02T16:12:11.21Z</time></trkpt><trkpt lat="43.2268667" lon="12.8169827"><ele>834.5714285714286</ele><time>2026-05-02T16:12:17.203Z</time></trkpt><trkpt lat="43.2268606" lon="12.8168916"><ele>832.0</ele><time>2026-05-02T16:12:24.201Z</time></trkpt><trkpt lat="43.2268178" lon="12.8168171"><ele>830.4285714285714</ele><time>2026-05-02T16:12:34.118Z</time></trkpt><trkpt lat="43.2267612" lon="12.8167611"><ele>828.8571428571429</ele><time>2026-05-02T16:12:45.117Z</time></trkpt><trkpt lat="43.2267443" lon="12.8166645"><ele>827.2857142857143</ele><time>2026-05-02T16:12:54.204Z</time></trkpt><trkpt lat="43.2267868" lon="12.8165914"><ele>825.7142857142858</ele><time>2026-05-02T16:13:02.202Z</time></trkpt><trkpt lat="43.2267973" lon="12.8164981"><ele>824.1428571428571</ele><time>2026-05-02T16:13:11.153Z</time></trkpt><trkpt lat="43.226756" lon="12.8164137"><ele>822.5714285714287</ele><time>2026-05-02T16:13:37.207Z</time></trkpt><trkpt lat="43.2267661" lon="12.8163261"><ele>821.0</ele><time>2026-05-02T16:13:51.07Z</time></trkpt><trkpt lat="43.2268003" lon="12.8162477"><ele>821.0000000000001</ele><time>2026-05-02T16:13:59.202Z</time></trkpt><trkpt lat="43.2267337" lon="12.8162027"><ele>821.0</ele><time>2026-05-02T16:14:09.201Z</time></trkpt><trkpt lat="43.2267027" lon="12.8161219"><ele>821.0</ele><time>2026-05-02T16:14:14.201Z</time></trkpt><trkpt lat="43.226696" lon="12.8160352"><ele>821.0</ele><time>2026-05-02T16:14:20.211Z</time></trkpt><trkpt lat="43.2267506" lon="12.8159828"><ele>821.0</ele><time>2026-05-02T16:14:25.202Z</time></trkpt><trkpt lat="43.2267783" lon="12.8158962"><ele>821.0000000000001</ele><time>2026-05-02T16:14:34.201Z</time></trkpt><trkpt lat="43.2267677" lon="12.8158018"><ele>821.0</ele><time>2026-05-02T16:14:42.161Z</time></trkpt><trkpt lat="43.2267247" lon="12.8157217"><ele>820.7142857142858</ele><time>2026-05-02T16:14:49.202Z</time></trkpt><trkpt lat="43.2266562" lon="12.8157377"><ele>820.4285714285714</ele><time>2026-05-02T16:14:55.212Z</time></trkpt><trkpt lat="43.2266134" lon="12.8156552"><ele>820.1428571428571</ele><time>2026-05-02T16:15:10.16Z</time></trkpt><trkpt lat="43.2266108" lon="12.8155656"><ele>819.8571428571429</ele><time>2026-05-02T16:15:16.202Z</time></trkpt><trkpt lat="43.2265816" lon="12.8154868"><ele>819.5714285714286</ele><time>2026-05-02T16:15:33.202Z</time></trkpt><trkpt lat="43.2265492" lon="12.8154101"><ele>819.2857142857143</ele><time>2026-05-02T16:15:39.218Z</time></trkpt><trkpt lat="43.2265149" lon="12.8153291"><ele>819.0</ele><time>2026-05-02T16:15:46.202Z</time></trkpt><trkpt lat="43.2264918" lon="12.8152473"><ele>818.7142857142857</ele><time>2026-05-02T16:15:53.202Z</time></trkpt><trkpt lat="43.22646" lon="12.8151594"><ele>818.4285714285714</ele><time>2026-05-02T16:16:01.202Z</time></trkpt><trkpt lat="43.2264174" lon="12.8150927"><ele>818.1428571428571</ele><time>2026-05-02T16:16:07.238Z</time></trkpt><trkpt lat="43.2263675" lon="12.8150295"><ele>817.8571428571429</ele><time>2026-05-02T16:16:13.206Z</time></trkpt><trkpt lat="43.2263429" lon="12.8149434"><ele>817.5714285714286</ele><time>2026-05-02T16:16:20.202Z</time></trkpt><trkpt lat="43.2263137" lon="12.8148626"><ele>817.2857142857142</ele><time>2026-05-02T16:16:27.202Z</time></trkpt><trkpt lat="43.2262964" lon="12.8147619"><ele>817.0</ele><time>2026-05-02T16:16:34.253Z</time></trkpt><trkpt lat="43.2262548" lon="12.8146846"><ele>816.9999999999999</ele><time>2026-05-02T16:16:42.202Z</time></trkpt><trkpt lat="43.2261864" lon="12.8146623"><ele>817.0</ele><time>2026-05-02T16:16:49.218Z</time></trkpt><trkpt lat="43.2261854" lon="12.8147555"><ele>817.0</ele><time>2026-05-02T16:17:12.201Z</time></trkpt><trkpt lat="43.2261446" lon="12.8146232"><ele>817.0</ele><time>2026-05-02T16:17:16.202Z</time></trkpt><trkpt lat="43.2261252" lon="12.8145247"><ele>816.9999999999999</ele><time>2026-05-02T16:17:18.202Z</time></trkpt><trkpt lat="43.2260916" lon="12.8144478"><ele>817.0</ele><time>2026-05-02T16:17:23.208Z</time></trkpt><trkpt lat="43.226091" lon="12.8143504"><ele>818.5714285714286</ele><time>2026-05-02T16:17:30.202Z</time></trkpt><trkpt lat="43.2261153" lon="12.814259"><ele>820.1428571428571</ele><time>2026-05-02T16:17:36.202Z</time></trkpt><trkpt lat="43.2261722" lon="12.8142217"><ele>821.7142857142858</ele><time>2026-05-02T16:17:45.201Z</time></trkpt><trkpt lat="43.2262357" lon="12.814188"><ele>823.2857142857142</ele><time>2026-05-02T16:17:50.217Z</time></trkpt><trkpt lat="43.2263094" lon="12.8141957"><ele>824.8571428571429</ele><time>2026-05-02T16:17:57.202Z</time></trkpt><trkpt lat="43.2263742" lon="12.8141953"><ele>826.4285714285714</ele><time>2026-05-02T16:18:03.202Z</time></trkpt><trkpt lat="43.2264284" lon="12.8141498"><ele>828.0</ele><time>2026-05-02T16:18:09.235Z</time></trkpt><trkpt lat="43.2264713" lon="12.8140797"><ele>823.7142857142858</ele><time>2026-05-02T16:18:16.201Z</time></trkpt><trkpt lat="43.2265257" lon="12.8140224"><ele>819.4285714285714</ele><time>2026-05-02T16:18:24.169Z</time></trkpt><trkpt lat="43.2265746" lon="12.8139549"><ele>815.1428571428571</ele><time>2026-05-02T16:18:30.202Z</time></trkpt><trkpt lat="43.2266049" lon="12.8138705"><ele>810.8571428571429</ele><time>2026-05-02T16:18:37.118Z</time></trkpt><trkpt lat="43.2266361" lon="12.8137876"><ele>806.5714285714286</ele><time>2026-05-02T16:18:44.118Z</time></trkpt><trkpt lat="43.2266822" lon="12.8137148"><ele>802.2857142857143</ele><time>2026-05-02T16:18:51.215Z</time></trkpt><trkpt lat="43.2267469" lon="12.8136869"><ele>798.0</ele><time>2026-05-02T16:18:59.409Z</time></trkpt><trkpt lat="43.226809" lon="12.8136646"><ele>798.0</ele><time>2026-05-02T16:19:06.202Z</time></trkpt><trkpt lat="43.2268701" lon="12.8136405"><ele>798.0</ele><time>2026-05-02T16:19:13.202Z</time></trkpt><trkpt lat="43.2269227" lon="12.8135915"><ele>798.0</ele><time>2026-05-02T16:19:21.202Z</time></trkpt><trkpt lat="43.2269883" lon="12.8135938"><ele>798.0</ele><time>2026-05-02T16:19:29.202Z</time></trkpt><trkpt lat="43.2270386" lon="12.8135392"><ele>798.0</ele><time>2026-05-02T16:19:35.22Z</time></trkpt><trkpt lat="43.2270995" lon="12.813506"><ele>798.0</ele><time>2026-05-02T16:19:41.201Z</time></trkpt><trkpt lat="43.2271327" lon="12.8134244"><ele>798.0</ele><time>2026-05-02T16:19:48.202Z</time></trkpt><trkpt lat="43.2271692" lon="12.8133519"><ele>798.1428571428571</ele><time>2026-05-02T16:19:54.201Z</time></trkpt><trkpt lat="43.2272272" lon="12.8132966"><ele>798.2857142857142</ele><time>2026-05-02T16:20:00.205Z</time></trkpt><trkpt lat="43.2272625" lon="12.8132241"><ele>798.4285714285714</ele><time>2026-05-02T16:20:05.179Z</time></trkpt><trkpt lat="43.22728" lon="12.8131315"><ele>798.5714285714286</ele><time>2026-05-02T16:20:10.203Z</time></trkpt><trkpt lat="43.2272788" lon="12.8130373"><ele>798.7142857142857</ele><time>2026-05-02T16:20:15.202Z</time></trkpt><trkpt lat="43.2272982" lon="12.8129526"><ele>798.8571428571429</ele><time>2026-05-02T16:20:20.202Z</time></trkpt><trkpt lat="43.2273306" lon="12.8128662"><ele>799.0</ele><time>2026-05-02T16:20:26.203Z</time></trkpt><trkpt lat="43.2273754" lon="12.8127822"><ele>798.2857142857143</ele><time>2026-05-02T16:20:33.955Z</time></trkpt><trkpt lat="43.2274079" lon="12.8127076"><ele>797.5714285714286</ele><time>2026-05-02T16:20:40.202Z</time></trkpt><trkpt lat="43.2274246" lon="12.8126229"><ele>796.8571428571429</ele><time>2026-05-02T16:20:46.232Z</time></trkpt><trkpt lat="43.2274839" lon="12.8125613"><ele>796.1428571428571</ele><time>2026-05-02T16:21:16.202Z</time></trkpt><trkpt lat="43.2274977" lon="12.8124743"><ele>795.4285714285713</ele><time>2026-05-02T16:21:24.231Z</time></trkpt><trkpt lat="43.2275068" lon="12.8123775"><ele>794.7142857142857</ele><time>2026-05-02T16:21:30.202Z</time></trkpt><trkpt lat="43.2275141" lon="12.812288"><ele>794.0</ele><time>2026-05-02T16:21:35.201Z</time></trkpt><trkpt lat="43.2274999" lon="12.812192"><ele>790.5714285714286</ele><time>2026-05-02T16:21:42.375Z</time></trkpt><trkpt lat="43.2274897" lon="12.8121063"><ele>787.1428571428571</ele><time>2026-05-02T16:21:50.202Z</time></trkpt><trkpt lat="43.2274821" lon="12.8120118"><ele>783.7142857142858</ele><time>2026-05-02T16:21:57.201Z</time></trkpt><trkpt lat="43.2274875" lon="12.8119177"><ele>780.2857142857142</ele><time>2026-05-02T16:22:04.21Z</time></trkpt><trkpt lat="43.2274607" lon="12.811827"><ele>776.8571428571429</ele><time>2026-05-02T16:23:07.202Z</time></trkpt><trkpt lat="43.2274356" lon="12.8117394"><ele>773.4285714285714</ele><time>2026-05-02T16:25:13.203Z</time></trkpt><trkpt lat="43.2274196" lon="12.8116477"><ele>770.0</ele><time>2026-05-02T16:25:24.202Z</time></trkpt><trkpt lat="43.2274599" lon="12.8115798"><ele>769.4285714285714</ele><time>2026-05-02T16:25:32.201Z</time></trkpt><trkpt lat="43.2274271" lon="12.811492"><ele>768.8571428571429</ele><time>2026-05-02T16:25:41.201Z</time></trkpt><trkpt lat="43.2273922" lon="12.8114082"><ele>768.2857142857142</ele><time>2026-05-02T16:25:48.202Z</time></trkpt><trkpt lat="43.2273699" lon="12.8113227"><ele>767.7142857142858</ele><time>2026-05-02T16:25:54.201Z</time></trkpt><trkpt lat="43.227356" lon="12.8112272"><ele>767.1428571428571</ele><time>2026-05-02T16:25:59.202Z</time></trkpt><trkpt lat="43.2273643" lon="12.8111408"><ele>766.5714285714286</ele><time>2026-05-02T16:26:12.201Z</time></trkpt><trkpt lat="43.2273468" lon="12.8110554"><ele>766.0</ele><time>2026-05-02T16:26:18.202Z</time></trkpt><trkpt lat="43.2272936" lon="12.8110046"><ele>766.7142857142857</ele><time>2026-05-02T16:26:26.199Z</time></trkpt><trkpt lat="43.2272482" lon="12.8109391"><ele>767.4285714285713</ele><time>2026-05-02T16:26:31.247Z</time></trkpt><trkpt lat="43.2272117" lon="12.8108507"><ele>768.1428571428571</ele><time>2026-05-02T16:26:38.773Z</time></trkpt><trkpt lat="43.2272053" lon="12.8107503"><ele>768.8571428571429</ele><time>2026-05-02T16:26:45.137Z</time></trkpt><trkpt lat="43.227231" lon="12.8106624"><ele>769.5714285714286</ele><time>2026-05-02T16:26:52.202Z</time></trkpt><trkpt lat="43.227177" lon="12.8106149"><ele>770.2857142857143</ele><time>2026-05-02T16:26:58.201Z</time></trkpt><trkpt lat="43.2271241" lon="12.8105617"><ele>771.0</ele><time>2026-05-02T16:27:04.202Z</time></trkpt><trkpt lat="43.2270968" lon="12.8104744"><ele>771.0</ele><time>2026-05-02T16:27:11.116Z</time></trkpt><trkpt lat="43.2271028" lon="12.8103751"><ele>771.0</ele><time>2026-05-02T16:27:17.197Z</time></trkpt><trkpt lat="43.2270912" lon="12.81028"><ele>771.0</ele><time>2026-05-02T16:27:23.202Z</time></trkpt><trkpt lat="43.2270865" lon="12.8101885"><ele>771.0</ele><time>2026-05-02T16:27:29.202Z</time></trkpt><trkpt lat="43.2270188" lon="12.8101663"><ele>771.0</ele><time>2026-05-02T16:27:35.201Z</time></trkpt><trkpt lat="43.2269588" lon="12.8101333"><ele>771.0</ele><time>2026-05-02T16:27:41.113Z</time></trkpt><trkpt lat="43.2269025" lon="12.8100694"><ele>771.0</ele><time>2026-05-02T16:27:48.201Z</time></trkpt><trkpt lat="43.2268624" lon="12.8099985"><ele>769.5714285714286</ele><time>2026-05-02T16:27:54.201Z</time></trkpt><trkpt lat="43.226837" lon="12.8099071"><ele>768.1428571428571</ele><time>2026-05-02T16:28:01.201Z</time></trkpt><trkpt lat="43.2268183" lon="12.8098154"><ele>766.7142857142857</ele><time>2026-05-02T16:28:41.201Z</time></trkpt><trkpt lat="43.2268171" lon="12.8097104"><ele>765.2857142857142</ele><time>2026-05-02T16:28:46.202Z</time></trkpt><trkpt lat="43.2268023" lon="12.8096137"><ele>763.8571428571429</ele><time>2026-05-02T16:28:52.201Z</time></trkpt><trkpt lat="43.226794" lon="12.8095224"><ele>762.4285714285713</ele><time>2026-05-02T16:28:58.202Z</time></trkpt><trkpt lat="43.2267553" lon="12.809444"><ele>761.0</ele><time>2026-05-02T16:29:04.222Z</time></trkpt><trkpt lat="43.2266997" lon="12.8093788"><ele>761.5714285714286</ele><time>2026-05-02T16:29:11.184Z</time></trkpt><trkpt lat="43.2267203" lon="12.8092851"><ele>762.1428571428571</ele><time>2026-05-02T16:29:17.217Z</time></trkpt><trkpt lat="43.226727" lon="12.8091822"><ele>762.7142857142858</ele><time>2026-05-02T16:29:22.201Z</time></trkpt><trkpt lat="43.2267157" lon="12.8090944"><ele>763.2857142857142</ele><time>2026-05-02T16:29:26.203Z</time></trkpt><trkpt lat="43.2267309" lon="12.8089951"><ele>763.8571428571429</ele><time>2026-05-02T16:29:32.233Z</time></trkpt><trkpt lat="43.2267518" lon="12.8089025"><ele>764.4285714285714</ele><time>2026-05-02T16:29:37.633Z</time></trkpt><trkpt lat="43.2267428" lon="12.8088027"><ele>765.0</ele><time>2026-05-02T16:29:43.219Z</time></trkpt><trkpt lat="43.2267505" lon="12.8087134"><ele>765.0000000000001</ele><time>2026-05-02T16:29:52.202Z</time></trkpt><trkpt lat="43.2267567" lon="12.8086163"><ele>765.0</ele><time>2026-05-02T16:29:59.206Z</time></trkpt><trkpt lat="43.2267441" lon="12.8085237"><ele>765.0</ele><time>2026-05-02T16:30:06.15Z</time></trkpt><trkpt lat="43.2267489" lon="12.8084368"><ele>765.0</ele><time>2026-05-02T16:30:15.201Z</time></trkpt><trkpt lat="43.2267047" lon="12.8083592"><ele>765.0</ele><time>2026-05-02T16:30:22.203Z</time></trkpt><trkpt lat="43.2266563" lon="12.8082952"><ele>765.0000000000001</ele><time>2026-05-02T16:30:28.202Z</time></trkpt><trkpt lat="43.2266339" lon="12.8082119"><ele>765.0</ele><time>2026-05-02T16:30:44.201Z</time></trkpt><trkpt lat="43.2266053" lon="12.8081245"><ele>765.5714285714287</ele><time>2026-05-02T16:30:49.202Z</time></trkpt><trkpt lat="43.2265579" lon="12.8080668"><ele>766.1428571428571</ele><time>2026-05-02T16:30:54.202Z</time></trkpt><trkpt lat="43.2265266" lon="12.8079752"><ele>766.7142857142858</ele><time>2026-05-02T16:31:00.192Z</time></trkpt><trkpt lat="43.2265454" lon="12.8078849"><ele>767.2857142857143</ele><time>2026-05-02T16:31:08.202Z</time></trkpt><trkpt lat="43.2265586" lon="12.8077932"><ele>767.8571428571429</ele><time>2026-05-02T16:31:15.173Z</time></trkpt><trkpt lat="43.2265472" lon="12.8076996"><ele>768.4285714285714</ele><time>2026-05-02T16:31:22.203Z</time></trkpt><trkpt lat="43.2265282" lon="12.8076058"><ele>769.0</ele><time>2026-05-02T16:31:29.202Z</time></trkpt><trkpt lat="43.2265601" lon="12.8075232"><ele>767.8571428571428</ele><time>2026-05-02T16:31:35.209Z</time></trkpt><trkpt lat="43.2266138" lon="12.8074765"><ele>766.7142857142858</ele><time>2026-05-02T16:31:42.202Z</time></trkpt><trkpt lat="43.2266761" lon="12.8074452"><ele>765.5714285714286</ele><time>2026-05-02T16:31:49.202Z</time></trkpt><trkpt lat="43.2267376" lon="12.807412"><ele>764.4285714285713</ele><time>2026-05-02T16:31:55.137Z</time></trkpt><trkpt lat="43.2268058" lon="12.8073757"><ele>763.2857142857142</ele><time>2026-05-02T16:32:02.219Z</time></trkpt><trkpt lat="43.2268663" lon="12.8073174"><ele>762.1428571428571</ele><time>2026-05-02T16:32:11.116Z</time></trkpt><trkpt lat="43.2269104" lon="12.8072375"><ele>761.0</ele><time>2026-05-02T16:32:20.959Z</time></trkpt><trkpt lat="43.2269713" lon="12.8071947"><ele>760.9999999999999</ele><time>2026-05-02T16:32:28.06Z</time></trkpt><trkpt lat="43.2270289" lon="12.8071523"><ele>761.0</ele><time>2026-05-02T16:32:34.202Z</time></trkpt><trkpt lat="43.2270942" lon="12.8071043"><ele>761.0</ele><time>2026-05-02T16:32:40.203Z</time></trkpt><trkpt lat="43.2271608" lon="12.8070836"><ele>761.0</ele><time>2026-05-02T16:32:49.202Z</time></trkpt><trkpt lat="43.2272318" lon="12.8070879"><ele>761.0</ele><time>2026-05-02T16:32:56.131Z</time></trkpt><trkpt lat="43.2272952" lon="12.8070632"><ele>760.9999999999999</ele><time>2026-05-02T16:33:02.207Z</time></trkpt><trkpt lat="43.227323" lon="12.8069846"><ele>761.0</ele><time>2026-05-02T16:33:08.202Z</time></trkpt><trkpt lat="43.2273827" lon="12.8069516"><ele>759.8571428571428</ele><time>2026-05-02T16:33:15.203Z</time></trkpt><trkpt lat="43.227434" lon="12.8068895"><ele>758.7142857142857</ele><time>2026-05-02T16:33:25.202Z</time></trkpt><trkpt lat="43.2274043" lon="12.8068068"><ele>757.5714285714286</ele><time>2026-05-02T16:33:42.202Z</time></trkpt><trkpt lat="43.2273713" lon="12.8067287"><ele>756.4285714285713</ele><time>2026-05-02T16:33:48.221Z</time></trkpt><trkpt lat="43.227428" lon="12.8066754"><ele>755.2857142857143</ele><time>2026-05-02T16:33:55.222Z</time></trkpt><trkpt lat="43.2274357" lon="12.8065836"><ele>754.1428571428571</ele><time>2026-05-02T16:34:06.178Z</time></trkpt><trkpt lat="43.2274482" lon="12.8064928"><ele>753.0</ele><time>2026-05-02T16:34:27.202Z</time></trkpt><trkpt lat="43.2274902" lon="12.8064122"><ele>746.7142857142858</ele><time>2026-05-02T16:34:33.202Z</time></trkpt><trkpt lat="43.2275149" lon="12.806322"><ele>740.4285714285714</ele><time>2026-05-02T16:34:44.202Z</time></trkpt><trkpt lat="43.227573" lon="12.8062661"><ele>734.1428571428571</ele><time>2026-05-02T16:34:52.111Z</time></trkpt><trkpt lat="43.2276236" lon="12.8062089"><ele>727.8571428571429</ele><time>2026-05-02T16:34:59.202Z</time></trkpt><trkpt lat="43.2276438" lon="12.8061216"><ele>721.5714285714286</ele><time>2026-05-02T16:35:05.159Z</time></trkpt><trkpt lat="43.22767" lon="12.8060346"><ele>715.2857142857143</ele><time>2026-05-02T16:35:11.22Z</time></trkpt><trkpt lat="43.2276903" lon="12.8059448"><ele>709.0</ele><time>2026-05-02T16:35:18.201Z</time></trkpt><trkpt lat="43.2277118" lon="12.8058634"><ele>707.7142857142858</ele><time>2026-05-02T16:35:23.713Z</time></trkpt><trkpt lat="43.2277244" lon="12.8057771"><ele>706.4285714285714</ele><time>2026-05-02T16:35:31.201Z</time></trkpt><trkpt lat="43.2277315" lon="12.8056894"><ele>705.1428571428571</ele><time>2026-05-02T16:35:38.199Z</time></trkpt><trkpt lat="43.227703" lon="12.8056107"><ele>703.8571428571429</ele><time>2026-05-02T16:35:45.202Z</time></trkpt><trkpt lat="43.227668" lon="12.8055373"><ele>702.5714285714286</ele><time>2026-05-02T16:35:51.201Z</time></trkpt><trkpt lat="43.2276712" lon="12.8054502"><ele>701.2857142857143</ele><time>2026-05-02T16:35:56.202Z</time></trkpt><trkpt lat="43.2277041" lon="12.8053735"><ele>700.0</ele><time>2026-05-02T16:36:37.201Z</time></trkpt><trkpt lat="43.2277123" lon="12.8052826"><ele>700.0</ele><time>2026-05-02T16:36:43.201Z</time></trkpt><trkpt lat="43.227696" lon="12.8051907"><ele>700.0</ele><time>2026-05-02T16:36:51.201Z</time></trkpt><trkpt lat="43.2277453" lon="12.8051271"><ele>700.0</ele><time>2026-05-02T16:36:59.201Z</time></trkpt><trkpt lat="43.2277686" lon="12.8050378"><ele>700.0</ele><time>2026-05-02T16:37:06.204Z</time></trkpt><trkpt lat="43.2277706" lon="12.8049439"><ele>700.0</ele><time>2026-05-02T16:37:13.202Z</time></trkpt><trkpt lat="43.2278166" lon="12.8048661"><ele>700.0</ele><time>2026-05-02T16:37:20.201Z</time></trkpt><trkpt lat="43.2278223" lon="12.8047708"><ele>700.0</ele><time>2026-05-02T16:37:27.2Z</time></trkpt><trkpt lat="43.227861" lon="12.804695"><ele>701.1428571428571</ele><time>2026-05-02T16:37:32.202Z</time></trkpt><trkpt lat="43.2278725" lon="12.8046081"><ele>702.2857142857142</ele><time>2026-05-02T16:37:37.893Z</time></trkpt><trkpt lat="43.2279027" lon="12.8045259"><ele>703.4285714285714</ele><time>2026-05-02T16:37:45.202Z</time></trkpt><trkpt lat="43.227909" lon="12.8044226"><ele>704.5714285714286</ele><time>2026-05-02T16:37:53.202Z</time></trkpt><trkpt lat="43.2278775" lon="12.8043347"><ele>705.7142857142857</ele><time>2026-05-02T16:38:00.243Z</time></trkpt><trkpt lat="43.2278834" lon="12.8042358"><ele>706.8571428571429</ele><time>2026-05-02T16:38:07.204Z</time></trkpt><trkpt lat="43.2278671" lon="12.8041465"><ele>708.0</ele><time>2026-05-02T16:38:15.201Z</time></trkpt><trkpt lat="43.2278318" lon="12.8040616"><ele>709.2857142857143</ele><time>2026-05-02T16:38:22.236Z</time></trkpt><trkpt lat="43.2278862" lon="12.8040084"><ele>710.5714285714286</ele><time>2026-05-02T16:38:28.202Z</time></trkpt><trkpt lat="43.22794" lon="12.8039492"><ele>711.8571428571429</ele><time>2026-05-02T16:38:35.202Z</time></trkpt><trkpt lat="43.2280046" lon="12.803919"><ele>713.1428571428571</ele><time>2026-05-02T16:38:42.22Z</time></trkpt><trkpt lat="43.2280716" lon="12.8039299"><ele>714.4285714285713</ele><time>2026-05-02T16:38:48.202Z</time></trkpt><trkpt lat="43.228021" lon="12.8039897"><ele>715.7142857142857</ele><time>2026-05-02T16:39:16.2Z</time></trkpt><trkpt lat="43.2280856" lon="12.8039537"><ele>717.0</ele><time>2026-05-02T16:45:09.202Z</time></trkpt><trkpt lat="43.2281273" lon="12.8038843"><ele>708.7142857142857</ele><time>2026-05-02T16:45:14.202Z</time></trkpt><trkpt lat="43.2281909" lon="12.8038365"><ele>700.4285714285713</ele><time>2026-05-02T16:45:22.202Z</time></trkpt><trkpt lat="43.2282493" lon="12.8038796"><ele>692.1428571428571</ele><time>2026-05-02T16:45:28.172Z</time></trkpt><trkpt lat="43.2283139" lon="12.8038656"><ele>683.8571428571429</ele><time>2026-05-02T16:45:34.201Z</time></trkpt><trkpt lat="43.2283738" lon="12.8038244"><ele>675.5714285714286</ele><time>2026-05-02T16:45:40.202Z</time></trkpt><trkpt lat="43.2284471" lon="12.8038177"><ele>667.2857142857143</ele><time>2026-05-02T16:45:47.202Z</time></trkpt><trkpt lat="43.2285178" lon="12.803789"><ele>659.0</ele><time>2026-05-02T16:46:26.223Z</time></trkpt><trkpt lat="43.2285773" lon="12.8037582"><ele>659.0</ele><time>2026-05-02T16:46:32.157Z</time></trkpt><trkpt lat="43.228633" lon="12.8036912"><ele>659.0</ele><time>2026-05-02T16:46:39.218Z</time></trkpt><trkpt lat="43.2286683" lon="12.8036174"><ele>659.0</ele><time>2026-05-02T16:46:45.202Z</time></trkpt><trkpt lat="43.2287315" lon="12.8035875"><ele>659.0</ele><time>2026-05-02T16:47:03.202Z</time></trkpt><trkpt lat="43.2287605" lon="12.8035008"><ele>659.0</ele><time>2026-05-02T16:47:10.202Z</time></trkpt><trkpt lat="43.22878" lon="12.8034027"><ele>659.0</ele><time>2026-05-02T16:47:16.172Z</time></trkpt><trkpt lat="43.2288117" lon="12.8033256"><ele>659.0</ele><time>2026-05-02T16:47:22.201Z</time></trkpt><trkpt lat="43.2288528" lon="12.8032491"><ele>659.0</ele><time>2026-05-02T16:47:36.227Z</time></trkpt><trkpt lat="43.2289006" lon="12.8031723"><ele>659.0</ele><time>2026-05-02T16:47:42.201Z</time></trkpt><trkpt lat="43.2289379" lon="12.803095"><ele>659.0</ele><time>2026-05-02T16:47:48.857Z</time></trkpt><trkpt lat="43.2289739" lon="12.8030148"><ele>659.0</ele><time>2026-05-02T16:48:04.202Z</time></trkpt><trkpt lat="43.2290249" lon="12.802958"><ele>659.0</ele><time>2026-05-02T16:48:11.173Z</time></trkpt><trkpt lat="43.2290763" lon="12.8029077"><ele>659.0</ele><time>2026-05-02T16:48:18.211Z</time></trkpt><trkpt lat="43.2291318" lon="12.8028504"><ele>659.0</ele><time>2026-05-02T16:48:25.201Z</time></trkpt><trkpt lat="43.2291851" lon="12.8027933"><ele>658.7142857142858</ele><time>2026-05-02T16:48:31.202Z</time></trkpt><trkpt lat="43.2292111" lon="12.8027025"><ele>658.4285714285713</ele><time>2026-05-02T16:48:37.202Z</time></trkpt><trkpt lat="43.2292351" lon="12.8026074"><ele>658.1428571428571</ele><time>2026-05-02T16:48:44.209Z</time></trkpt><trkpt lat="43.2292512" lon="12.8025221"><ele>657.8571428571429</ele><time>2026-05-02T16:48:49.202Z</time></trkpt><trkpt lat="43.2292662" lon="12.8024258"><ele>657.5714285714287</ele><time>2026-05-02T16:48:55.236Z</time></trkpt><trkpt lat="43.2292797" lon="12.8023316"><ele>657.2857142857142</ele><time>2026-05-02T16:49:02.146Z</time></trkpt><trkpt lat="43.2292847" lon="12.802242"><ele>657.0</ele><time>2026-05-02T16:49:08.102Z</time></trkpt><trkpt lat="43.2292944" lon="12.8021457"><ele>654.0</ele><time>2026-05-02T16:49:15.203Z</time></trkpt><trkpt lat="43.2293016" lon="12.802052"><ele>651.0</ele><time>2026-05-02T16:49:22.202Z</time></trkpt><trkpt lat="43.2292606" lon="12.8019858"><ele>648.0</ele><time>2026-05-02T16:49:27.204Z</time></trkpt><trkpt lat="43.2291888" lon="12.8019974"><ele>645.0</ele><time>2026-05-02T16:49:32.202Z</time></trkpt><trkpt lat="43.2291422" lon="12.8020704"><ele>642.0</ele><time>2026-05-02T16:49:38.231Z</time></trkpt><trkpt lat="43.2291078" lon="12.8021609"><ele>639.0</ele><time>2026-05-02T16:49:45.211Z</time></trkpt><trkpt lat="43.2290678" lon="12.8022409"><ele>636.0</ele><time>2026-05-02T16:49:52.139Z</time></trkpt><trkpt lat="43.229044" lon="12.802323"><ele>636.0</ele><time>2026-05-02T16:49:59.201Z</time></trkpt><trkpt lat="43.2290029" lon="12.8023925"><ele>636.0</ele><time>2026-05-02T16:50:06.201Z</time></trkpt><trkpt lat="43.228969" lon="12.8024741"><ele>636.0</ele><time>2026-05-02T16:50:12.324Z</time></trkpt><trkpt lat="43.2289283" lon="12.8025619"><ele>636.0</ele><time>2026-05-02T16:50:19.202Z</time></trkpt><trkpt lat="43.2288643" lon="12.8025926"><ele>636.0</ele><time>2026-05-02T16:50:26.201Z</time></trkpt><trkpt lat="43.2288148" lon="12.8025326"><ele>636.0</ele><time>2026-05-02T16:50:32.22Z</time></trkpt><trkpt lat="43.2287671" lon="12.8024587"><ele>636.0</ele><time>2026-05-02T16:50:38.221Z</time></trkpt><trkpt lat="43.2287587" lon="12.80237"><ele>638.4285714285714</ele><time>2026-05-02T16:50:45.201Z</time></trkpt><trkpt lat="43.2287839" lon="12.8022825"><ele>640.8571428571429</ele><time>2026-05-02T16:50:53.201Z</time></trkpt><trkpt lat="43.2288148" lon="12.8022043"><ele>643.2857142857143</ele><time>2026-05-02T16:51:00.201Z</time></trkpt><trkpt lat="43.2288485" lon="12.8021295"><ele>645.7142857142858</ele><time>2026-05-02T16:51:08.118Z</time></trkpt><trkpt lat="43.2288392" lon="12.8020375"><ele>648.1428571428571</ele><time>2026-05-02T16:51:14.201Z</time></trkpt><trkpt lat="43.2288288" lon="12.8019517"><ele>650.5714285714287</ele><time>2026-05-02T16:51:21.215Z</time></trkpt><trkpt lat="43.2288901" lon="12.801899"><ele>653.0</ele><time>2026-05-02T16:51:28.202Z</time></trkpt><trkpt lat="43.2289444" lon="12.801853"><ele>649.5714285714287</ele><time>2026-05-02T16:51:34.204Z</time></trkpt><trkpt lat="43.2289888" lon="12.8017858"><ele>646.1428571428571</ele><time>2026-05-02T16:51:41.201Z</time></trkpt><trkpt lat="43.2289623" lon="12.8016886"><ele>642.7142857142858</ele><time>2026-05-02T16:51:56.201Z</time></trkpt><trkpt lat="43.2289519" lon="12.8015948"><ele>639.2857142857143</ele><time>2026-05-02T16:52:01.201Z</time></trkpt><trkpt lat="43.228935" lon="12.8015108"><ele>635.8571428571429</ele><time>2026-05-02T16:52:07.201Z</time></trkpt><trkpt lat="43.2289345" lon="12.8014218"><ele>632.4285714285714</ele><time>2026-05-02T16:52:13.213Z</time></trkpt><trkpt lat="43.2289329" lon="12.8013307"><ele>629.0</ele><time>2026-05-02T16:52:20.2Z</time></trkpt><trkpt lat="43.2289168" lon="12.8012442"><ele>629.0</ele><time>2026-05-02T16:52:26.201Z</time></trkpt><trkpt lat="43.2289101" lon="12.8011381"><ele>629.0</ele><time>2026-05-02T16:52:32.131Z</time></trkpt><trkpt lat="43.2289243" lon="12.8010503"><ele>629.0</ele><time>2026-05-02T16:52:38.137Z</time></trkpt><trkpt lat="43.2289092" lon="12.8009646"><ele>629.0</ele><time>2026-05-02T16:52:44.201Z</time></trkpt><trkpt lat="43.2288626" lon="12.8009"><ele>629.0</ele><time>2026-05-02T16:52:50.403Z</time></trkpt><trkpt lat="43.2288016" lon="12.8008507"><ele>629.0</ele><time>2026-05-02T16:52:57.22Z</time></trkpt><trkpt lat="43.2287526" lon="12.8007912"><ele>629.0</ele><time>2026-05-02T16:53:04.201Z</time></trkpt><trkpt lat="43.2287023" lon="12.8007371"><ele>625.5714285714286</ele><time>2026-05-02T16:53:10.137Z</time></trkpt><trkpt lat="43.2286434" lon="12.8006951"><ele>622.1428571428572</ele><time>2026-05-02T16:53:16.201Z</time></trkpt><trkpt lat="43.2285862" lon="12.8006421"><ele>618.7142857142858</ele><time>2026-05-02T16:53:22.208Z</time></trkpt><trkpt lat="43.2285251" lon="12.8006032"><ele>615.2857142857142</ele><time>2026-05-02T16:53:28.201Z</time></trkpt><trkpt lat="43.2284653" lon="12.800557"><ele>611.8571428571429</ele><time>2026-05-02T16:53:34.2Z</time></trkpt><trkpt lat="43.2284072" lon="12.8005085"><ele>608.4285714285714</ele><time>2026-05-02T16:53:40.215Z</time></trkpt><trkpt lat="43.2283398" lon="12.8004733"><ele>605.0</ele><time>2026-05-02T16:53:47.201Z</time></trkpt><trkpt lat="43.2282898" lon="12.800418"><ele>605.0</ele><time>2026-05-02T16:53:59.201Z</time></trkpt><trkpt lat="43.2282181" lon="12.8003969"><ele>605.0</ele><time>2026-05-02T16:54:04.201Z</time></trkpt><trkpt lat="43.2281626" lon="12.8003442"><ele>605.0</ele><time>2026-05-02T16:54:09.261Z</time></trkpt><trkpt lat="43.2281306" lon="12.8002596"><ele>605.0</ele><time>2026-05-02T16:54:14.205Z</time></trkpt><trkpt lat="43.2280916" lon="12.8001901"><ele>605.0</ele><time>2026-05-02T16:54:19.2Z</time></trkpt><trkpt lat="43.2280562" lon="12.8001174"><ele>605.0</ele><time>2026-05-02T16:54:25.201Z</time></trkpt><trkpt lat="43.2280214" lon="12.800035"><ele>605.0</ele><time>2026-05-02T16:54:32.213Z</time></trkpt><trkpt lat="43.2280101" lon="12.799938"><ele>606.7142857142857</ele><time>2026-05-02T16:54:39.201Z</time></trkpt><trkpt lat="43.2280009" lon="12.7998491"><ele>608.4285714285714</ele><time>2026-05-02T16:54:45.2Z</time></trkpt><trkpt lat="43.2280037" lon="12.799755"><ele>610.1428571428571</ele><time>2026-05-02T16:54:51.198Z</time></trkpt><trkpt lat="43.2280182" lon="12.7996568"><ele>611.8571428571429</ele><time>2026-05-02T16:54:57.2Z</time></trkpt><trkpt lat="43.2280133" lon="12.7995562"><ele>613.5714285714286</ele><time>2026-05-02T16:55:03.113Z</time></trkpt><trkpt lat="43.2280167" lon="12.7994633"><ele>615.2857142857143</ele><time>2026-05-02T16:55:09.201Z</time></trkpt><trkpt lat="43.2280092" lon="12.7993693"><ele>617.0</ele><time>2026-05-02T16:55:15.207Z</time></trkpt><trkpt lat="43.228006" lon="12.799268"><ele>617.4285714285714</ele><time>2026-05-02T16:55:21.201Z</time></trkpt><trkpt lat="43.2279976" lon="12.7991758"><ele>617.8571428571428</ele><time>2026-05-02T16:55:27.201Z</time></trkpt><trkpt lat="43.2280049" lon="12.7990868"><ele>618.2857142857142</ele><time>2026-05-02T16:55:33.214Z</time></trkpt><trkpt lat="43.2279983" lon="12.798997"><ele>618.7142857142858</ele><time>2026-05-02T16:55:39.239Z</time></trkpt><trkpt lat="43.228022" lon="12.7989149"><ele>619.1428571428571</ele><time>2026-05-02T16:55:45.158Z</time></trkpt><trkpt lat="43.2280549" lon="12.798827"><ele>619.5714285714286</ele><time>2026-05-02T16:55:50.209Z</time></trkpt><trkpt lat="43.2280737" lon="12.7987437"><ele>620.0</ele><time>2026-05-02T16:55:56.201Z</time></trkpt><trkpt lat="43.2280871" lon="12.7986563"><ele>620.0</ele><time>2026-05-02T16:56:02.201Z</time></trkpt><trkpt lat="43.2280676" lon="12.7985583"><ele>620.0</ele><time>2026-05-02T16:56:48.074Z</time></trkpt><trkpt lat="43.2280876" lon="12.7984719"><ele>620.0</ele><time>2026-05-02T16:56:51.114Z</time></trkpt><trkpt lat="43.2281395" lon="12.7984029"><ele>620.0</ele><time>2026-05-02T16:56:54.201Z</time></trkpt><trkpt lat="43.2282187" lon="12.798395"><ele>620.0</ele><time>2026-05-02T16:56:58.202Z</time></trkpt><trkpt lat="43.2282837" lon="12.7983895"><ele>620.0</ele><time>2026-05-02T16:57:02.201Z</time></trkpt><trkpt lat="43.2283384" lon="12.7983467"><ele>620.0</ele><time>2026-05-02T16:57:06.238Z</time></trkpt><trkpt lat="43.2283808" lon="12.7982648"><ele>612.1428571428571</ele><time>2026-05-02T16:57:11.195Z</time></trkpt><trkpt lat="43.2284268" lon="12.7982048"><ele>604.2857142857142</ele><time>2026-05-02T16:57:18.201Z</time></trkpt><trkpt lat="43.2284373" lon="12.7981022"><ele>596.4285714285713</ele><time>2026-05-02T16:57:24.201Z</time></trkpt><trkpt lat="43.2284087" lon="12.7980245"><ele>588.5714285714286</ele><time>2026-05-02T16:57:27.224Z</time></trkpt><trkpt lat="43.2283981" lon="12.7979388"><ele>580.7142857142857</ele><time>2026-05-02T16:57:32.198Z</time></trkpt><trkpt lat="43.2284389" lon="12.7978628"><ele>572.8571428571428</ele><time>2026-05-02T16:57:37.2Z</time></trkpt><trkpt lat="43.2284761" lon="12.7977786"><ele>565.0</ele><time>2026-05-02T16:57:43.207Z</time></trkpt><trkpt lat="43.2285275" lon="12.7977112"><ele>564.9999999999999</ele><time>2026-05-02T16:57:49.201Z</time></trkpt><trkpt lat="43.2285953" lon="12.7976895"><ele>565.0</ele><time>2026-05-02T16:57:55.201Z</time></trkpt><trkpt lat="43.228661" lon="12.7976445"><ele>565.0</ele><time>2026-05-02T16:58:01.201Z</time></trkpt><trkpt lat="43.2287018" lon="12.7975783"><ele>565.0</ele><time>2026-05-02T16:58:07.201Z</time></trkpt><trkpt lat="43.2287239" lon="12.7974916"><ele>565.0</ele><time>2026-05-02T16:58:13.201Z</time></trkpt><trkpt lat="43.2287427" lon="12.7974082"><ele>564.9999999999999</ele><time>2026-05-02T16:58:20.219Z</time></trkpt><trkpt lat="43.2287687" lon="12.7973186"><ele>565.0</ele><time>2026-05-02T16:58:26.2Z</time></trkpt><trkpt lat="43.2287943" lon="12.7972262"><ele>565.4285714285713</ele><time>2026-05-02T16:58:32.27Z</time></trkpt><trkpt lat="43.2287948" lon="12.7971383"><ele>565.8571428571429</ele><time>2026-05-02T16:58:42.2Z</time></trkpt><trkpt lat="43.2288153" lon="12.7970489"><ele>566.2857142857142</ele><time>2026-05-02T16:58:47.201Z</time></trkpt><trkpt lat="43.2287961" lon="12.7969662"><ele>566.7142857142857</ele><time>2026-05-02T16:58:52.201Z</time></trkpt><trkpt lat="43.228771" lon="12.7968721"><ele>567.1428571428571</ele><time>2026-05-02T16:58:58.158Z</time></trkpt><trkpt lat="43.2287841" lon="12.7967682"><ele>567.5714285714286</ele><time>2026-05-02T16:59:04.121Z</time></trkpt><trkpt lat="43.2287748" lon="12.7966777"><ele>568.0</ele><time>2026-05-02T16:59:10.2Z</time></trkpt><trkpt lat="43.2287532" lon="12.796578"><ele>568.2857142857142</ele><time>2026-05-02T16:59:16.201Z</time></trkpt><trkpt lat="43.2287457" lon="12.7964886"><ele>568.5714285714286</ele><time>2026-05-02T16:59:21.201Z</time></trkpt><trkpt lat="43.2287503" lon="12.7963969"><ele>568.8571428571429</ele><time>2026-05-02T16:59:26.202Z</time></trkpt><trkpt lat="43.2287474" lon="12.7963072"><ele>569.1428571428571</ele><time>2026-05-02T16:59:32.201Z</time></trkpt><trkpt lat="43.2287431" lon="12.7962065"><ele>569.4285714285714</ele><time>2026-05-02T16:59:55.201Z</time></trkpt><trkpt lat="43.2287484" lon="12.7961151"><ele>569.7142857142857</ele><time>2026-05-02T17:00:02.202Z</time></trkpt><trkpt lat="43.2287107" lon="12.7960304"><ele>570.0</ele><time>2026-05-02T17:00:08.171Z</time></trkpt><trkpt lat="43.2287193" lon="12.7959436"><ele>563.0</ele><time>2026-05-02T17:00:14.201Z</time></trkpt><trkpt lat="43.2287271" lon="12.7958439"><ele>563.0</ele><time>2026-05-02T17:00:21.221Z</time></trkpt><trkpt lat="43.2287479" lon="12.7957567"><ele>563.0</ele><time>2026-05-02T17:00:28.202Z</time></trkpt><trkpt lat="43.2287736" lon="12.7956602"><ele>563.0</ele><time>2026-05-02T17:00:36.198Z</time></trkpt><trkpt lat="43.2287824" lon="12.7955647"><ele>563.0</ele><time>2026-05-02T17:00:42.753Z</time></trkpt><trkpt lat="43.2288036" lon="12.7954826"><ele>563.0</ele><time>2026-05-02T17:00:52.216Z</time></trkpt></trkseg><trkseg><trkpt lat="43.2316373" lon="12.7879601"><ele>535.0</ele><time>2026-05-02T17:11:18.201Z</time></trkpt><trkpt lat="43.2316415" lon="12.7878287"><ele>535.0</ele><time>2026-05-02T17:11:20.201Z</time></trkpt></trkseg><trkseg><trkpt lat="43.213837" lon="12.7874686"><ele>563.3</ele><time>2026-05-02T20:01:04.197Z</time></trkpt></trkseg></trk></gpx>